createdAt,value
2023-05-10T00:04:45.951Z,66.57
2023-05-10T00:09:48.951Z,66.39
2023-05-10T00:14:52.058Z,66.30
2023-05-10T00:19:55.572Z,66.25
2023-05-10T00:24:58.985Z,66.22
2023-05-10T00:30:02.120Z,66.37
2023-05-10T00:35:05.403Z,66.60
2023-05-10T00:40:08.804Z,66.80
2023-05-10T00:45:12.730Z,67.17
2023-05-10T00:50:17.032Z,67.45
2023-05-10T00:55:21.102Z,67.75
2023-05-10T01:00:24.104Z,68.18
2023-05-10T01:05:28.744Z,68.97
2023-05-10T01:10:32.369Z,69.83
2023-05-10T01:15:35.913Z,69.85
2023-05-10T01:20:42.988Z,69.77
2023-05-10T01:25:46.087Z,69.62
2023-05-10T01:30:59.751Z,69.65
2023-05-10T01:36:07.867Z,69.53
2023-05-10T01:41:16.192Z,69.50
2023-05-10T01:46:21.863Z,69.50
2023-05-10T01:51:26.801Z,69.52
2023-05-10T01:56:32.255Z,69.98
2023-05-10T02:01:38.047Z,70.07
2023-05-10T02:06:42.564Z,70.10
2023-05-10T02:11:45.564Z,70.18
2023-05-10T02:16:49.640Z,70.02
2023-05-10T02:21:53.214Z,69.82
2023-05-10T02:26:59.386Z,69.61
2023-05-10T02:32:03.362Z,69.53
2023-05-10T02:37:07.359Z,69.74
2023-05-10T02:42:14.953Z,69.64
2023-05-10T02:47:19.390Z,69.93
2023-05-10T02:52:30.488Z,70.12
2023-05-10T02:57:35.128Z,70.21
2023-05-10T03:02:38.166Z,70.33
2023-05-10T03:07:41.548Z,70.49
2023-05-10T03:12:50.702Z,70.39
2023-05-10T03:17:58.665Z,70.53
2023-05-10T03:23:05.985Z,70.43
2023-05-10T03:28:10.141Z,70.31
2023-05-10T03:33:14.480Z,69.86
2023-05-10T03:38:17.480Z,69.32
2023-05-10T03:43:20.586Z,68.84
2023-05-10T03:48:23.485Z,68.11
2023-05-10T03:53:26.695Z,67.26
2023-05-10T03:58:29.705Z,65.16
2023-05-10T04:03:32.778Z,61.43
2023-05-10T04:08:36.222Z,57.05
2023-05-10T04:13:39.736Z,53.84
2023-05-10T04:18:42.845Z,50.51
2023-05-10T04:23:46.052Z,47.53
2023-05-10T04:28:49.156Z,45.71
2023-05-10T04:33:52.670Z,44.13
2023-05-10T04:38:55.768Z,42.82
2023-05-10T04:43:58.789Z,41.79
2023-05-10T04:49:02.293Z,39.87
2023-05-10T04:54:06.774Z,38.98
2023-05-10T04:59:10.149Z,37.47
2023-05-10T05:04:13.041Z,36.36
2023-05-10T05:09:16.148Z,35.28
2023-05-10T05:14:19.151Z,34.80
2023-05-10T05:19:22.150Z,34.21
2023-05-10T05:24:25.459Z,32.86
2023-05-10T05:29:28.998Z,31.69
2023-05-10T05:34:32.085Z,31.54
2023-05-10T05:39:37.456Z,31.13
2023-05-10T05:44:40.751Z,30.62
2023-05-10T05:49:43.858Z,29.45
2023-05-10T05:54:46.863Z,28.92
2023-05-10T05:59:49.862Z,28.72
2023-05-10T06:04:53.071Z,28.04
2023-05-10T06:09:55.971Z,27.34
2023-05-10T06:14:58.871Z,26.80
2023-05-10T06:20:02.144Z,26.27
2023-05-10T06:25:05.808Z,25.76
2023-05-10T06:30:13.428Z,25.90
2023-05-10T06:35:16.935Z,25.21
2023-05-10T06:40:20.640Z,24.98
2023-05-10T06:45:23.749Z,24.65
2023-05-10T06:50:26.998Z,24.34
2023-05-10T06:55:30.484Z,23.94
2023-05-10T07:00:33.512Z,23.17
2023-05-10T07:05:36.804Z,22.42
2023-05-10T07:10:40.006Z,21.11
2023-05-10T07:15:43.619Z,20.16
2023-05-10T07:20:46.962Z,20.27
2023-05-10T07:25:50.950Z,20.46
2023-05-10T07:30:54.006Z,19.62
2023-05-10T07:35:57.005Z,19.27
2023-05-10T07:40:59.959Z,19.38
2023-05-10T07:46:03.120Z,19.80
2023-05-10T07:51:07.715Z,18.89
2023-05-10T07:56:28.524Z,18.19
2023-05-10T08:01:33.603Z,18.57
2023-05-10T08:06:36.682Z,17.75
2023-05-10T08:11:39.597Z,17.84
2023-05-10T08:16:42.583Z,18.11
2023-05-10T08:21:46.108Z,17.62
2023-05-10T08:26:49.533Z,18.10
2023-05-10T08:31:52.978Z,18.17
2023-05-10T08:36:56.033Z,17.85
2023-05-10T08:42:03.146Z,18.01
2023-05-10T08:47:10.843Z,18.22
2023-05-10T08:52:14.630Z,17.63
2023-05-10T08:57:18.390Z,18.07
2023-05-10T09:02:21.712Z,18.13
2023-05-10T09:07:25.009Z,18.45
2023-05-10T09:12:30.284Z,18.58
2023-05-10T09:17:35.014Z,18.41
2023-05-10T09:22:39.048Z,18.24
2023-05-10T09:27:43.203Z,18.08
2023-05-10T09:32:47.657Z,18.40
2023-05-10T09:37:52.449Z,18.85
2023-05-10T09:42:57.189Z,17.99
2023-05-10T09:48:01.993Z,18.11
2023-05-10T09:53:05.134Z,18.45
2023-05-10T09:58:12.021Z,18.41
2023-05-10T10:03:16.490Z,18.89
2023-05-10T10:08:19.592Z,19.85
2023-05-10T10:13:22.713Z,21.72
2023-05-10T10:18:28.414Z,23.10
2023-05-10T10:23:31.769Z,24.05
2023-05-10T10:28:37.747Z,24.86
2023-05-10T10:33:53.544Z,25.93
2023-05-10T10:39:00.868Z,25.95
2023-05-10T10:44:23.469Z,26.47
2023-05-10T10:49:26.620Z,26.47
2023-05-10T10:54:29.779Z,26.87
2023-05-10T10:59:32.932Z,26.98
2023-05-10T11:04:47.764Z,26.83
2023-05-10T11:09:51.133Z,27.27
2023-05-10T11:14:58.426Z,27.26
2023-05-10T11:20:08.695Z,27.18
2023-05-10T11:25:12.332Z,27.25
2023-05-10T11:30:16.586Z,26.70
2023-05-10T11:35:19.865Z,26.85
2023-05-10T11:40:24.920Z,26.95
2023-05-10T11:45:29.318Z,26.97
2023-05-10T11:50:32.707Z,27.17
2023-05-10T11:55:35.867Z,27.09
2023-05-10T12:00:39.178Z,26.62
2023-05-10T12:05:43.246Z,27.26
2023-05-10T12:10:46.409Z,27.17
2023-05-10T12:15:49.418Z,26.72
2023-05-10T12:20:55.793Z,26.31
2023-05-10T12:26:04.017Z,26.46
2023-05-10T12:31:07.643Z,26.80
2023-05-10T12:36:11.359Z,26.37
2023-05-10T12:41:16.143Z,26.65
2023-05-10T12:46:20.159Z,26.18
2023-05-10T12:51:24.059Z,26.29
2023-05-10T12:56:27.286Z,26.06
2023-05-10T13:01:30.324Z,25.81
2023-05-10T13:06:33.368Z,26.14
2023-05-10T13:11:36.378Z,25.55
2023-05-10T13:16:39.396Z,25.09
2023-05-10T13:21:42.683Z,24.55
2023-05-10T13:26:46.109Z,25.57
2023-05-10T13:31:50.666Z,25.72
2023-05-10T13:36:55.084Z,26.13
2023-05-10T13:41:58.085Z,26.18
2023-05-10T13:47:01.106Z,26.26
2023-05-10T13:52:08.202Z,26.51
2023-05-10T13:57:13.883Z,25.89
2023-05-10T14:02:17.268Z,25.59
2023-05-10T14:07:20.393Z,25.92
2023-05-10T14:12:23.576Z,25.84
2023-05-10T14:17:26.694Z,25.51
2023-05-10T14:22:30.214Z,25.52
2023-05-10T14:27:33.621Z,25.65
2023-05-10T14:32:37.981Z,25.64
2023-05-10T14:37:41.769Z,25.11
2023-05-10T14:42:45.188Z,25.25
2023-05-10T14:47:49.030Z,25.44
2023-05-10T14:52:52.307Z,25.02
2023-05-10T14:57:55.929Z,25.66
2023-05-10T15:02:59.082Z,26.16
2023-05-10T15:08:02.563Z,25.95
2023-05-10T15:13:06.284Z,26.40
2023-05-10T15:18:12.316Z,26.03
2023-05-10T15:23:15.344Z,26.38
2023-05-10T15:28:18.561Z,27.24
2023-05-10T15:33:22.286Z,26.90
2023-05-10T15:38:25.694Z,26.71
2023-05-10T15:43:28.945Z,26.96
2023-05-10T15:48:32.620Z,27.36
2023-05-10T15:53:36.442Z,27.23
2023-05-10T15:58:39.949Z,27.45
2023-05-10T16:03:43.366Z,27.83
2023-05-10T16:08:46.378Z,28.26
2023-05-10T16:13:49.477Z,27.92
2023-05-10T16:18:53.169Z,27.95
2023-05-10T16:23:56.813Z,28.44
2023-05-10T16:28:59.821Z,28.39
2023-05-10T16:34:03.341Z,28.68
2023-05-10T16:39:07.060Z,28.81
2023-05-10T16:44:11.393Z,29.02
2023-05-10T16:49:14.904Z,29.18
2023-05-10T16:54:19.050Z,29.38
2023-05-10T16:59:22.664Z,29.63
2023-05-10T17:04:25.777Z,30.08
2023-05-10T17:09:32.182Z,29.92
2023-05-10T17:14:36.002Z,30.01
2023-05-10T17:19:39.616Z,30.23
2023-05-10T17:24:45.351Z,30.61
2023-05-10T17:29:48.988Z,30.74
2023-05-10T17:34:52.395Z,30.64
2023-05-10T17:39:55.902Z,31.05
2023-05-10T17:44:59.932Z,31.46
2023-05-10T17:50:04.387Z,31.76
2023-05-10T17:55:09.139Z,31.97
2023-05-10T18:00:13.053Z,32.28
2023-05-10T18:05:16.985Z,32.74
2023-05-10T18:10:21.198Z,33.09
2023-05-10T18:15:26.255Z,33.62
2023-05-10T18:20:29.765Z,34.01
2023-05-10T18:25:33.899Z,34.43
2023-05-10T18:30:37.806Z,34.93
2023-05-10T18:35:41.448Z,35.28
2023-05-10T18:40:44.941Z,35.75
2023-05-10T18:45:49.056Z,36.11
2023-05-10T18:50:52.708Z,36.39
2023-05-10T18:55:57.970Z,36.73
2023-05-10T19:01:01.585Z,37.14
2023-05-10T19:06:05.182Z,37.51
2023-05-10T19:11:08.802Z,37.98
2023-05-10T19:16:15.216Z,38.37
2023-05-10T19:21:18.480Z,38.69
2023-05-10T19:26:23.386Z,39.10
2023-05-10T19:31:27.320Z,39.48
2023-05-10T19:36:32.004Z,39.78
2023-05-10T19:41:36.703Z,40.00
2023-05-10T19:46:40.485Z,40.30
2023-05-10T19:51:45.099Z,40.58
2023-05-10T19:56:48.824Z,40.90
2023-05-10T20:01:52.233Z,41.17
2023-05-10T20:06:56.169Z,41.80
2023-05-10T20:11:59.914Z,42.51
2023-05-10T20:17:03.738Z,43.20
2023-05-10T20:22:09.712Z,43.92
2023-05-10T20:27:18.147Z,44.74
2023-05-10T20:32:21.657Z,46.64
2023-05-10T20:37:25.312Z,48.37
2023-05-10T20:42:28.675Z,49.47
2023-05-10T20:47:32.942Z,50.30
2023-05-10T20:52:36.015Z,50.96
2023-05-10T20:57:39.921Z,51.66
2023-05-10T21:02:45.246Z,52.27
2023-05-10T21:07:49.600Z,52.74
2023-05-10T21:12:52.761Z,53.76
2023-05-10T21:17:56.000Z,55.42
2023-05-10T21:22:59.271Z,56.05
2023-05-10T21:28:02.344Z,56.73
2023-05-10T21:33:05.460Z,57.38
2023-05-10T21:38:09.803Z,58.33
2023-05-10T21:43:12.905Z,59.62
2023-05-10T21:48:15.976Z,60.76
2023-05-10T21:53:19.006Z,62.45
2023-05-10T21:58:22.547Z,63.58
2023-05-10T22:03:26.654Z,64.41
2023-05-10T22:08:29.955Z,65.51
2023-05-10T22:13:32.955Z,66.16
2023-05-10T22:18:36.738Z,66.71
2023-05-10T22:23:39.784Z,66.86
2023-05-10T22:28:42.886Z,66.70
2023-05-10T22:33:45.994Z,66.65
2023-05-10T22:38:48.997Z,66.42
2023-05-10T22:43:52.004Z,65.95
2023-05-10T22:48:55.452Z,65.41
2023-05-10T22:53:58.418Z,64.99
2023-05-10T22:59:01.534Z,64.44
2023-05-10T23:04:04.639Z,63.87
2023-05-10T23:09:08.248Z,63.33
2023-05-10T23:14:11.249Z,63.06
2023-05-10T23:19:14.093Z,62.62
2023-05-10T23:24:17.868Z,62.17
2023-05-10T23:29:20.771Z,61.95
2023-05-10T23:34:23.770Z,61.82
2023-05-10T23:39:27.254Z,61.86
2023-05-10T23:44:30.299Z,62.06
2023-05-10T23:49:33.303Z,62.55
2023-05-10T23:54:36.404Z,63.11
2023-05-10T23:59:39.329Z,63.39
